Terminal Aerodrome Forecast
Issued by NWS

Home | Current Version | Previous Version | Graphics & Text | Print | Product List | Glossary On
Versions: 1 2 3 4 5 6 7 8 9 10 11 12 13 14 15 16
000
FTUS43 KBIS 040400 AAB
TAFMOT
TAF AMD
KMOT 040407Z 0404/0424 23008KT P6SM SCT080
     FM040600 28014KT P6SM BKN025
     FM041500 29016KT P6SM SCT035=

USA.gov is the U.S. government's official web portal to all federal, state and local government web resources and services.